Time;durP1;ratioP1;P1;durP2;ratioP2;P2;SDS_P1;SDS_P2;PMS_P1;PMS_P2;Temp;Humidity;BMP_temperature;BMP_pressure;BME280_temperature;BME280_humidity;BME280_pressure;Samples;Min_cycle;Max_cycle;Signal;HPM_P1;HPM_P2
2022/03/18 00:00:34;;;;;;;118.57;51.63;;;;;;;-0.74;73.65;99878.91;1742932;82;21025;-56
2022/03/18 00:03:02;;;;;;;112.12;51.42;;;;;;;-0.70;73.90;99874.08;1742876;81;21013;-56
2022/03/18 00:05:31;;;;;;;111.20;47.80;;;;;;;-0.72;74.80;99872.92;1730472;80;21438;-56
2022/03/18 00:07:58;;;;;;;92.27;41.98;;;;;;;-0.73;76.16;99875.75;1773705;80;21418;-57
2022/03/18 00:10:25;;;;;;;93.17;40.92;;;;;;;-0.73;75.62;99875.25;1741468;82;21009;-57
2022/03/18 00:12:53;;;;;;;91.53;42.20;;;;;;;-0.74;74.29;99884.23;1743028;81;21502;-56
2022/03/18 00:15:23;;;;;;;85.87;41.23;;;;;;;-0.78;74.99;99882.88;1757896;80;20994;-56
2022/03/18 00:17:51;;;;;;;93.87;40.17;;;;;;;-0.76;74.80;99882.23;1743242;81;21048;-56
2022/03/18 00:20:18;;;;;;;84.97;37.93;;;;;;;-0.77;77.09;99886.37;1766853;80;21019;-57
2022/03/18 00:22:46;;;;;;;102.17;48.80;;;;;;;-0.81;73.99;99890.36;1744494;80;21503;-57
2022/03/18 00:25:14;;;;;;;95.28;43.42;;;;;;;-0.83;74.37;99892.36;1759956;80;21010;-56
2022/03/18 00:27:45;;;;;;;92.10;42.35;;;;;;;-0.81;74.34;99897.84;1743092;81;20993;-57
2022/03/18 00:30:13;;;;;;;99.05;44.08;;;;;;;-0.81;76.09;99892.53;1746499;80;21020;-56
2022/03/18 00:32:41;;;;;;;89.62;38.65;;;;;;;-0.79;74.48;99899.02;1743348;81;21011;-57
2022/03/18 00:35:08;;;;;;;84.30;40.60;;;;;;;-0.73;73.70;99906.36;1738139;80;21081;-57
2022/03/18 00:37:36;;;;;;;87.72;43.25;;;;;;;-0.72;72.99;99907.53;1743069;81;21038;-57
2022/03/18 00:40:04;;;;;;;89.13;43.33;;;;;;;-0.72;73.31;99904.87;1743230;81;20998;-57
2022/03/18 00:42:31;;;;;;;93.67;44.70;;;;;;;-0.72;73.39;99912.85;1756944;80;21541;-56
2022/03/18 00:45:00;;;;;;;107.07;47.35;;;;;;;-0.74;74.61;99912.69;1751166;81;21138;-57
2022/03/18 00:52:58;;;;;;;85.30;37.55;;;;;;;-0.88;75.67;99901.64;1743110;82;20987;-57
2022/03/18 00:55:25;;;;;;;87.17;39.35;;;;;;;-0.91;74.62;99900.64;1757339;80;21612;-56
2022/03/18 00:57:52;;;;;;;76.55;33.75;;;;;;;-0.99;76.88;99899.77;1752045;80;21397;-57
2022/03/18 01:00:19;;;;;;;67.15;31.55;;;;;;;-1.00;76.40;99896.28;1754121;80;20986;-57
2022/03/18 01:02:46;;;;;;;78.75;33.85;;;;;;;-1.02;75.46;99894.78;1742795;81;21072;-57
2022/03/18 01:05:12;;;;;;;68.15;31.82;;;;;;;-1.06;76.83;99897.41;1743003;81;21049;-56
2022/03/18 01:07:39;;;;;;;75.00;31.80;;;;;;;-1.09;75.71;99899.91;1743161;82;20993;-56
2022/03/18 01:10:07;;;;;;;66.67;30.88;;;;;;;-1.13;75.81;99902.53;1743264;82;22254;-57
2022/03/18 01:12:35;;;;;;;67.60;31.87;;;;;;;-1.18;74.77;99891.55;1742710;81;21561;-56
2022/03/18 01:15:01;;;;;;;73.28;33.20;;;;;;;-1.20;75.85;99896.17;1741606;82;21465;-57
2022/03/18 01:17:28;;;;;;;74.35;30.48;;;;;;;-1.24;77.85;99900.98;1742111;81;21065;-57
2022/03/18 01:19:55;;;;;;;75.25;34.58;;;;;;;-1.22;76.53;99894.17;1742628;80;21096;-56
2022/03/18 01:22:22;;;;;;;71.28;32.05;;;;;;;-1.24;77.60;99897.49;1772731;80;22072;-57
2022/03/18 01:24:49;;;;;;;70.90;33.90;;;;;;;-1.24;77.78;99899.66;1755500;80;20998;-57
2022/03/18 01:27:16;;;;;;;72.92;33.92;;;;;;;-1.24;76.71;99900.16;1742194;81;21036;-57
2022/03/18 01:29:43;;;;;;;73.17;32.85;;;;;;;-1.25;76.98;99893.17;1743255;82;21010;-56
2022/03/18 01:32:10;;;;;;;70.67;33.50;;;;;;;-1.26;76.98;99900.31;1766930;80;20973;-56
2022/03/18 01:34:36;;;;;;;71.15;35.92;;;;;;;-1.26;75.61;99897.66;1757841;80;21410;-57
2022/03/18 01:37:04;;;;;;;74.15;37.63;;;;;;;-1.26;77.59;99896.33;1742795;81;21005;-56
2022/03/18 01:39:31;;;;;;;74.53;33.80;;;;;;;-1.23;76.58;99891.17;1743329;82;20982;-57
2022/03/18 01:41:57;;;;;;;61.98;31.27;;;;;;;-1.22;77.55;99894.17;1743204;82;21057;-57
2022/03/18 01:44:24;;;;;;;71.15;32.15;;;;;;;-1.23;77.83;99904.48;1743693;82;20982;-57
2022/03/18 01:46:51;;;;;;;72.03;34.13;;;;;;;-1.24;78.26;99910.80;1744434;82;22187;-57
2022/03/18 01:49:18;;;;;;;78.57;34.13;;;;;;;-1.29;78.22;99909.92;1748834;80;21010;-57
2022/03/18 01:51:45;;;;;;;68.30;32.17;;;;;;;-1.31;78.20;99905.27;1706259;82;21069;-56
2022/03/18 01:56:59;;;;;;;79.92;36.13;;;;;;;-1.33;77.19;99917.89;1743181;81;21049;-57
2022/03/18 01:59:26;;;;;;;81.70;36.30;;;;;;;-1.29;76.39;99907.27;1743662;82;21364;-57
2022/03/18 02:01:53;;;;;;;73.90;37.85;;;;;;;-1.24;75.88;99918.28;1750500;80;20996;-57
2022/03/18 02:04:20;;;;;;;81.20;37.38;;;;;;;-1.19;75.30;99903.19;1762900;80;21493;-58
2022/03/18 02:06:47;;;;;;;78.85;37.08;;;;;;;-1.19;76.06;99901.36;1742925;81;20998;-57
2022/03/18 02:09:14;;;;;;;69.07;33.55;;;;;;;-1.21;77.51;99913.12;1732031;80;21036;-58
2022/03/18 02:11:41;;;;;;;77.15;34.13;;;;;;;-1.26;76.29;99911.45;1747576;80;21279;-58
2022/03/18 02:14:07;;;;;;;80.92;36.45;;;;;;;-1.36;77.81;99912.06;1721353;82;21001;-57
2022/03/18 02:16:38;;;;;;;70.85;33.80;;;;;;;-1.43;78.30;99908.70;1746900;80;21498;-57
2022/03/18 02:19:03;;;;;;;78.00;35.33;;;;;;;-1.46;78.68;99908.16;1750779;80;20981;-57
2022/03/18 02:21:30;;;;;;;72.85;32.20;;;;;;;-1.50;79.63;99908.98;1754747;80;21042;-57
2022/03/18 02:23:58;;;;;;;67.50;32.25;;;;;;;-1.51;78.30;99913.96;1707520;82;21009;-57
2022/03/18 02:26:25;;;;;;;78.57;37.20;;;;;;;-1.53;76.90;99923.92;1740041;80;21041;-57
2022/03/18 02:28:52;;;;;;;79.62;37.20;;;;;;;-1.52;77.07;99919.44;1746192;82;21002;-57
2022/03/18 02:31:19;;;;;;;73.35;35.52;;;;;;;-1.53;76.03;99926.59;1756282;80;21387;-58
2022/03/18 02:33:46;;;;;;;68.30;32.45;;;;;;;-1.54;76.35;99926.72;1773577;80;21060;-57
2022/03/18 02:36:13;;;;;;;57.95;27.90;;;;;;;-1.53;77.28;99932.40;1758301;80;21389;-58
2022/03/18 02:38:41;;;;;;;60.92;28.05;;;;;;;-1.50;76.89;99930.75;1742843;82;21534;-57
2022/03/18 02:41:11;;;;;;;65.45;29.27;;;;;;;-1.51;77.64;99926.42;1743387;82;22105;-57
2022/03/18 02:43:39;;;;;;;69.42;31.48;;;;;;;-1.57;79.86;99927.03;1743049;82;21065;-57
2022/03/18 02:46:06;;;;;;;65.30;28.40;;;;;;;-1.59;80.06;99930.35;1743343;82;21026;-57
2022/03/18 02:48:33;;;;;;;63.90;28.83;;;;;;;-1.60;78.74;99937.49;1744217;80;21020;-58
2022/03/18 02:51:00;;;;;;;60.03;29.52;;;;;;;-1.63;79.41;99939.11;1747956;80;20974;-58
2022/03/18 02:53:26;;;;;;;60.12;31.12;;;;;;;-1.67;79.21;99943.09;1743167;81;21072;-57
2022/03/18 02:55:54;;;;;;;61.10;27.75;;;;;;;-1.69;79.92;99936.27;1748217;80;21442;-58
2022/03/18 02:58:21;;;;;;;66.75;29.90;;;;;;;-1.69;78.82;99939.75;1743106;81;21044;-58
2022/03/18 03:00:48;;;;;;;60.50;26.95;;;;;;;-1.72;79.12;99939.55;1743388;81;21264;-57
2022/03/18 03:03:15;;;;;;;62.45;31.57;;;;;;;-1.76;78.60;99942.19;1743279;81;21049;-57
2022/03/18 03:08:28;;;;;;;55.33;25.85;;;;;;;-1.78;77.55;99938.02;1743008;81;21010;-57
2022/03/18 03:10:55;;;;;;;64.62;29.48;;;;;;;-1.82;79.35;99937.97;1743273;82;21422;-57
2022/03/18 03:13:23;;;;;;;49.73;24.80;;;;;;;-1.84;80.67;99939.95;1724522;80;20981;-57
2022/03/18 03:15:50;;;;;;;54.98;25.80;;;;;;;-1.82;79.55;99933.98;1730344;80;21068;-57
2022/03/18 03:18:18;;;;;;;55.50;24.87;;;;;;;-1.82;78.98;99944.62;1756150;80;21453;-57
2022/03/18 03:20:45;;;;;;;59.25;26.50;;;;;;;-1.83;79.24;99941.63;1743182;82;21054;-56
2022/03/18 03:23:11;;;;;;;60.20;26.80;;;;;;;-1.83;78.98;99942.95;1743138;81;21009;-56
2022/03/18 03:25:38;;;;;;;45.50;24.90;;;;;;;-1.83;80.07;99945.11;1743198;80;21040;-57
2022/03/18 03:28:05;;;;;;;59.13;27.52;;;;;;;-1.83;80.05;99945.61;1721685;82;21434;-56
2022/03/18 03:30:33;;;;;;;57.88;27.87;;;;;;;-1.82;79.05;99947.27;1741469;81;21010;-56
2022/03/18 03:33:00;;;;;;;53.55;28.05;;;;;;;-1.78;78.19;99949.48;1743269;81;21002;-56
2022/03/18 03:35:27;;;;;;;58.30;25.23;;;;;;;-1.77;78.92;99955.64;1743344;82;21061;-57
2022/03/18 03:37:54;;;;;;;56.20;26.57;;;;;;;-1.80;79.59;99956.76;1742933;81;21435;-56
2022/03/18 03:40:21;;;;;;;48.90;26.05;;;;;;;-1.81;80.05;99960.91;1761610;80;20994;-56
2022/03/18 03:42:48;;;;;;;53.92;26.33;;;;;;;-1.83;78.71;99959.73;1745152;80;21065;-56
2022/03/18 03:45:15;;;;;;;48.95;23.47;;;;;;;-1.85;79.28;99963.05;1762925;80;20993;-57
2022/03/18 03:47:42;;;;;;;48.10;24.15;;;;;;;-1.87;79.80;99962.86;1738683;82;20974;-56
2022/03/18 03:50:09;;;;;;;60.05;23.98;;;;;;;-1.89;80.20;99962.98;1752507;80;21447;-56
2022/03/18 03:52:37;;;;;;;60.20;25.55;;;;;;;-1.89;79.79;99966.14;1742822;81;21002;-56
2022/03/18 03:55:05;;;;;;;48.28;24.23;;;;;;;-1.91;79.20;99968.96;1761311;80;21398;-56
2022/03/18 03:57:32;;;;;;;58.52;24.07;;;;;;;-1.90;78.86;99964.48;1743246;81;21616;-56
2022/03/18 03:59:59;;;;;;;53.75;23.32;;;;;;;-1.89;78.79;99968.80;1743185;82;21002;-56
2022/03/18 04:02:28;;;;;;;52.33;26.17;;;;;;;-1.89;79.50;99966.98;1743113;81;21088;-56
2022/03/18 04:04:57;;;;;;;57.33;25.82;;;;;;;-1.90;79.67;99971.13;1722180;80;20965;-56
2022/03/18 04:07:27;;;;;;;48.02;23.35;;;;;;;-2.02;80.75;99974.02;1743414;81;21053;-56
2022/03/18 04:09:54;;;;;;;55.50;27.10;;;;;;;-2.02;80.75;99974.02;1743212;82;21001;-57
2022/03/18 04:12:21;;;;;;;45.10;20.92;;;;;;;-2.04;77.87;99974.67;1743239;81;21006;-56
2022/03/18 04:14:49;;;;;;;94.10;36.53;;;;;;;-2.09;77.15;99976.09;1742445;82;21369;-56
2022/03/18 04:17:17;;;;;;;54.65;25.32;;;;;;;-2.12;76.73;99981.72;1743390;81;21069;-56
2022/03/18 04:19:44;;;;;;;47.58;24.45;;;;;;;-2.14;77.12;99983.67;1743120;82;21419;-57
2022/03/18 04:22:10;;;;;;;97.42;28.07;;;;;;;-2.16;77.95;99986.48;1743154;81;20978;-57
2022/03/18 04:24:37;;;;;;;62.62;26.12;;;;;;;-2.17;78.75;99990.62;1742877;82;21082;-56
2022/03/18 04:27:04;;;;;;;60.10;25.62;;;;;;;-2.21;80.82;99988.77;1770960;80;21410;-57
2022/03/18 04:29:31;;;;;;;51.45;24.80;;;;;;;-2.19;80.31;99989.45;1759913;80;21021;-56
2022/03/18 04:31:58;;;;;;;71.35;36.73;;;;;;;-2.17;80.52;99988.80;1742925;81;21428;-56
2022/03/18 04:34:25;;;;;;;52.98;25.95;;;;;;;-2.13;80.23;99994.66;1742404;82;21069;-57
2022/03/18 04:36:52;;;;;;;52.30;24.85;;;;;;;-2.12;79.83;99996.34;1743244;81;21014;-57
2022/03/18 04:39:19;;;;;;;62.62;29.20;;;;;;;-2.12;79.18;99997.16;1721671;82;21437;-56
2022/03/18 04:41:47;;;;;;;52.90;25.88;;;;;;;-2.09;79.74;99995.53;1746503;80;21073;-56
2022/03/18 04:44:13;;;;;;;59.33;25.72;;;;;;;-2.04;78.84;99999.08;1742877;82;21064;-56
2022/03/18 04:46:40;;;;;;;50.08;25.90;;;;;;;-2.06;80.90;99993.88;1743274;82;21016;-56
2022/03/18 04:49:07;;;;;;;57.78;25.37;;;;;;;-2.04;79.60;99997.75;1742877;81;20993;-56
2022/03/18 04:51:34;;;;;;;50.80;23.95;;;;;;;-2.08;79.68;99999.85;1743167;82;21521;-56
2022/03/18 04:54:01;;;;;;;53.28;24.18;;;;;;;-2.09;79.51;99998.67;1742930;81;21045;-56
2022/03/18 04:59:13;;;;;;;49.83;23.98;;;;;;;-2.09;80.39;100008.81;1742891;82;21053;-56
2022/03/18 05:01:40;;;;;;;46.35;24.52;;;;;;;-2.07;79.66;100013.47;1743366;82;21005;-56
2022/03/18 05:04:07;;;;;;;50.00;23.52;;;;;;;-2.04;79.25;100016.34;1743411;81;20994;-56
2022/03/18 05:06:34;;;;;;;48.90;24.02;;;;;;;-2.04;79.75;100018.51;1743266;82;20993;-56
2022/03/18 05:09:02;;;;;;;55.60;23.77;;;;;;;-2.04;80.21;100019.84;1743127;81;21013;-56
2022/03/18 05:11:29;;;;;;;50.05;21.87;;;;;;;-2.02;80.42;100031.63;1743168;82;20962;-57
2022/03/18 05:13:57;;;;;;;43.55;22.95;;;;;;;-1.97;78.91;100023.20;1742887;81;21057;-56
2022/03/18 05:16:25;;;;;;;53.00;24.45;;;;;;;-1.97;79.99;100025.36;1757442;80;21534;-56
2022/03/18 05:18:52;;;;;;;51.73;26.90;;;;;;;-1.90;79.47;100029.58;1773710;80;21045;-57
2022/03/18 05:21:22;;;;;;;48.95;24.95;;;;;;;-1.85;79.58;100033.97;1755760;80;21006;-56
2022/03/18 05:23:49;;;;;;;57.23;27.48;;;;;;;-1.79;79.87;100026.73;1742995;81;20993;-56
2022/03/18 05:26:16;;;;;;;59.03;26.52;;;;;;;-1.77;80.05;100029.56;1743319;82;21449;-57
2022/03/18 05:28:43;;;;;;;54.15;25.88;;;;;;;-1.74;80.17;100037.72;1743025;82;21586;-56
2022/03/18 05:31:10;;;;;;;57.17;28.17;;;;;;;-1.69;79.74;100026.16;1743144;82;21014;-56
2022/03/18 05:33:36;;;;;;;74.90;35.28;;;;;;;-1.62;79.66;100035.66;1743147;81;21009;-57
2022/03/18 05:36:04;;;;;;;62.15;30.05;;;;;;;-1.58;79.46;100038.37;1743299;82;21065;-56
2022/03/18 05:38:31;;;;;;;59.63;29.27;;;;;;;-1.55;79.32;100036.23;1743077;80;21450;-56
2022/03/18 05:40:58;;;;;;;61.05;29.92;;;;;;;-1.54;79.66;100041.05;1743094;82;22169;-57
2022/03/18 05:43:26;;;;;;;64.12;30.88;;;;;;;-1.51;79.52;100046.91;1743065;82;21010;-56
2022/03/18 05:45:53;;;;;;;62.98;29.63;;;;;;;-1.48;78.98;100049.75;1743382;82;21013;-57
2022/03/18 05:48:20;;;;;;;67.80;33.18;;;;;;;-1.46;79.27;100049.09;1743035;81;21013;-57
2022/03/18 05:50:47;;;;;;;61.50;30.27;;;;;;;-1.36;79.15;100053.03;1743369;82;21438;-57
2022/03/18 05:53:13;;;;;;;61.15;31.48;;;;;;;-1.29;78.21;100052.73;1743304;81;21069;-56
2022/03/18 05:58:26;;;;;;;69.58;34.60;;;;;;;-1.17;78.63;100052.34;1691389;83;21001;-56
2022/03/18 06:01:11;;;;;;;62.93;31.87;;;;;;;-1.09;78.61;100058.23;1726347;81;21009;-57
2022/03/18 06:03:57;;;;;;;81.78;33.20;;;;;;;-1.00;78.15;100059.95;1746450;80;21034;-57
2022/03/18 06:06:23;;;;;;;72.53;34.13;;;;;;;-0.84;77.99;100059.73;1752941;80;22091;-57
2022/03/18 06:11:54;;;;;;;73.22;35.75;;;;;;;-0.67;77.63;100068.98;1743086;82;20988;-56
2022/03/18 06:14:25;;;;;;;68.90;33.98;;;;;;;-0.53;77.33;100067.55;1743159;82;21029;-56
2022/03/18 06:16:57;;;;;;;69.45;36.28;;;;;;;-0.42;76.92;100071.28;1747469;80;21049;-57
2022/03/18 06:19:25;;;;;;;75.65;38.63;;;;;;;-0.35;76.66;100070.95;1743065;82;20986;-56
2022/03/18 06:21:52;;;;;;;69.37;38.55;;;;;;;-0.26;76.62;100077.66;1747511;80;20966;-57
2022/03/18 06:24:23;;;;;;;93.65;43.33;;;;;;;-0.20;76.35;100075.69;1743148;82;20990;-56
2022/03/18 06:26:50;;;;;;;96.00;46.83;;;;;;;-0.21;76.22;100072.19;1743172;82;21530;-57
2022/03/18 06:29:18;;;;;;;88.60;43.40;;;;;;;-0.14;76.03;100075.89;1743287;82;21371;-57
2022/03/18 06:31:45;;;;;;;74.15;37.65;;;;;;;-0.03;76.08;100079.59;1766013;80;21285;-57
2022/03/18 06:34:12;;;;;;;67.47;37.23;;;;;;;-0.01;75.64;100082.09;1764420;80;21058;-57
2022/03/18 06:36:39;;;;;;;102.55;40.65;;;;;;;0.11;75.42;100087.97;1743224;81;21044;-56
2022/03/18 06:39:07;;;;;;;70.90;34.35;;;;;;;0.12;75.55;100081.64;1749888;81;21068;-57
2022/03/18 06:41:34;;;;;;;95.87;45.55;;;;;;;0.25;75.12;100092.16;1768330;80;21005;-56
2022/03/18 06:44:01;;;;;;;166.95;66.35;;;;;;;0.23;74.10;100092.83;1766610;80;21204;-56
2022/03/18 06:46:28;;;;;;;102.02;46.58;;;;;;;0.30;74.11;100098.34;1747583;80;21441;-57
2022/03/18 06:48:55;;;;;;;79.20;38.40;;;;;;;0.41;73.75;100095.37;1748053;81;21045;-57
2022/03/18 06:51:22;;;;;;;97.85;43.42;;;;;;;0.52;73.56;100101.74;1743557;81;20978;-56
2022/03/18 06:53:49;;;;;;;101.62;45.35;;;;;;;0.57;71.42;100098.56;1748143;80;21010;-57
2022/03/18 06:56:16;;;;;;;97.40;44.77;;;;;;;0.64;71.52;100090.74;1747621;80;21286;-56
2022/03/18 06:58:43;;;;;;;110.88;50.28;;;;;;;0.74;71.17;100089.57;1743012;81;20990;-57
2022/03/18 07:01:11;;;;;;;106.47;46.58;;;;;;;0.88;71.62;100092.59;1747707;80;21505;-57
2022/03/18 07:03:38;;;;;;;88.33;39.38;;;;;;;1.03;70.51;100097.60;1742849;81;21060;-57
2022/03/18 07:06:06;;;;;;;99.52;46.35;;;;;;;1.21;70.95;100099.59;1743224;81;21056;-56
2022/03/18 07:08:34;;;;;;;84.75;41.40;;;;;;;1.33;69.72;100102.22;1743086;82;21394;-56
2022/03/18 07:11:04;;;;;;;83.80;39.67;;;;;;;1.52;69.49;100105.02;1750636;81;21060;-57
2022/03/18 07:13:31;;;;;;;70.55;35.98;;;;;;;1.75;69.72;100110.98;1768220;81;21010;-56
2022/03/18 07:17:54;;;;;;;54.38;29.42;;;;;;;2.01;70.27;100106.71;1743287;82;21011;-57
2022/03/18 07:18:27;;;;;;;54.95;27.58;;;;;;;2.16;68.15;100113.00;1740025;82;23126;-56
2022/03/18 07:20:54;;;;;;;52.75;27.62;;;;;;;2.32;66.05;100113.42;1707486;84;22090;-56
2022/03/18 07:23:22;;;;;;;51.90;31.85;;;;;;;2.50;67.74;100108.63;1707479;83;20984;-56
2022/03/18 07:25:51;;;;;;;57.78;26.73;;;;;;;2.68;67.49;100119.05;1757456;80;21560;-57
2022/03/18 07:28:18;;;;;;;61.02;38.35;;;;;;;2.95;65.26;100117.17;1743236;81;21068;-57
2022/03/18 07:30:45;;;;;;;69.53;39.60;;;;;;;3.15;64.43;100120.18;1742612;82;22128;-57
2022/03/18 07:33:12;;;;;;;56.55;27.02;;;;;;;3.55;63.65;100128.86;1742276;81;21479;-57
2022/03/18 07:35:39;;;;;;;59.67;32.08;;;;;;;4.07;64.47;100129.29;1742647;82;21058;-57
2022/03/18 07:38:09;;;;;;;58.23;31.30;;;;;;;4.31;60.90;100128.16;1743201;81;21022;-57
2022/03/18 07:40:37;;;;;;;50.17;28.90;;;;;;;4.74;59.81;100133.91;1742946;82;21021;-57
2022/03/18 07:43:05;;;;;;;56.25;31.62;;;;;;;4.87;56.65;100131.89;1743036;82;21057;-57
2022/03/18 07:45:34;;;;;;;54.03;28.45;;;;;;;5.30;59.94;100127.84;1707156;83;21039;-57
2022/03/18 07:48:05;;;;;;;46.65;26.95;;;;;;;5.59;57.88;100132.19;1746668;82;47812;-57
2022/03/18 07:50:33;;;;;;;51.37;26.60;;;;;;;6.09;60.43;100139.67;1762218;80;21426;-57
2022/03/18 07:53:08;;;;;;;54.05;29.18;;;;;;;6.38;60.62;100134.52;1742966;81;21002;-57
2022/03/18 07:55:36;;;;;;;47.33;27.27;;;;;;;6.64;60.88;100132.43;1757265;80;21249;-57
2022/03/18 07:58:04;;;;;;;50.38;29.42;;;;;;;6.75;57.88;100138.56;1743120;82;21412;-57
2022/03/18 08:00:30;;;;;;;53.45;29.70;;;;;;;6.86;55.08;100143.39;1721184;82;20974;-57
2022/03/18 08:02:57;;;;;;;51.98;28.55;;;;;;;6.94;55.96;100140.50;1746364;80;21495;-57
2022/03/18 08:05:24;;;;;;;46.90;28.15;;;;;;;7.22;57.75;100148.41;1750553;80;22107;-57
2022/03/18 08:07:52;;;;;;;64.62;38.48;;;;;;;7.16;53.22;100152.44;1756752;80;22102;-57
2022/03/18 08:10:19;;;;;;;73.28;50.52;;;;;;;7.30;50.71;100154.95;1742795;81;22092;-57
2022/03/18 08:12:46;;;;;;;53.60;34.30;;;;;;;7.37;50.35;100156.31;1741635;80;21509;-58
2022/03/18 08:15:15;;;;;;;54.50;35.38;;;;;;;7.48;50.50;100154.85;1732085;82;21023;-57
2022/03/18 08:17:42;;;;;;;49.40;31.80;;;;;;;7.48;50.50;100154.85;1741490;82;21033;-58
2022/03/18 08:20:12;;;;;;;50.30;31.30;;;;;;;7.75;49.73;100155.66;1752977;80;21354;-57
2022/03/18 08:22:40;;;;;;;40.98;28.60;;;;;;;7.71;47.64;100150.39;1746429;80;21066;-57
2022/03/18 08:25:07;;;;;;;40.17;25.17;;;;;;;8.04;45.73;100148.46;1732839;81;21032;-57
2022/03/18 08:27:34;;;;;;;80.35;52.38;;;;;;;8.45;50.40;100154.88;1740608;81;22949;-57
2022/03/18 08:30:01;;;;;;;62.43;38.55;;;;;;;8.51;44.59;100155.08;1741463;80;21049;-57
2022/03/18 08:32:28;;;;;;;49.48;30.68;;;;;;;9.06;48.93;100154.91;1751304;80;21045;-57
2022/03/18 08:34:56;;;;;;;44.27;27.13;;;;;;;10.15;48.40;100149.45;1751940;80;21025;-58
2022/03/18 08:40:11;;;;;;;43.63;28.07;;;;;;;11.64;42.69;100149.73;1741776;80;22264;-58
2022/03/18 08:42:38;;;;;;;36.03;23.87;;;;;;;12.50;45.37;100149.50;1740966;81;21172;-57
2022/03/18 08:45:05;;;;;;;39.73;24.25;;;;;;;13.26;43.62;100146.91;1741016;82;21108;-58
2022/03/18 08:47:32;;;;;;;37.93;23.83;;;;;;;13.04;36.42;100140.47;1748949;80;21072;-58
2022/03/18 08:49:59;;;;;;;30.92;22.98;;;;;;;14.17;40.45;100145.30;1752612;80;21095;-58
2022/03/18 08:52:26;;;;;;;39.48;24.23;;;;;;;15.36;40.00;100145.33;1747740;80;21032;-58
2022/03/18 08:54:53;;;;;;;39.35;24.25;;;;;;;15.51;32.90;100146.83;1749369;80;21474;-58
2022/03/18 08:57:20;;;;;;;33.15;21.97;;;;;;;14.45;29.36;100146.55;1742605;80;21104;-58
2022/03/18 08:59:47;;;;;;;33.40;23.27;;;;;;;16.06;35.00;100147.00;1744260;80;21021;-58
2022/03/18 09:02:13;;;;;;;32.00;22.48;;;;;;;16.99;35.10;100143.56;1744016;80;21044;-58
2022/03/18 09:04:42;;;;;;;31.60;20.90;;;;;;;17.51;33.32;100145.82;1748199;80;21024;-58
2022/03/18 09:07:09;;;;;;;30.82;20.60;;;;;;;18.38;33.26;100146.56;1741477;80;21039;-58
2022/03/18 09:09:36;;;;;;;31.45;22.48;;;;;;;18.31;32.30;100146.30;1746517;80;21025;-58
2022/03/18 09:12:04;;;;;;;31.33;21.77;;;;;;;16.45;33.84;100149.38;1741167;81;21699;-57
2022/03/18 09:14:31;;;;;;;32.73;21.85;;;;;;;14.91;34.38;100150.62;1740930;81;21006;-58
2022/03/18 09:16:58;;;;;;;39.70;25.88;;;;;;;13.61;35.21;100147.21;1748508;80;21020;-57
2022/03/18 09:19:25;;;;;;;35.03;22.80;;;;;;;12.46;36.09;100156.47;1755647;80;21058;-57
2022/03/18 09:21:52;;;;;;;35.40;23.18;;;;;;;11.66;36.28;100149.78;1741394;81;21592;-57
2022/03/18 09:24:19;;;;;;;36.65;22.65;;;;;;;10.80;37.48;100161.12;1756863;80;21414;-57
2022/03/18 09:26:46;;;;;;;37.42;22.90;;;;;;;10.21;38.29;100163.47;1766321;80;21053;-57
2022/03/18 09:29:12;;;;;;;41.95;23.27;;;;;;;9.72;39.26;100161.13;1762805;80;20976;-57
2022/03/18 09:31:39;;;;;;;38.85;23.05;;;;;;;9.35;39.33;100162.91;1751865;80;21107;-57
2022/03/18 09:34:06;;;;;;;46.55;26.33;;;;;;;9.00;40.86;100163.88;1748970;80;21080;-56
2022/03/18 09:36:33;;;;;;;42.58;25.08;;;;;;;8.83;41.10;100162.73;1740642;80;21148;-57
2022/03/18 09:39:00;;;;;;;34.23;21.65;;;;;;;8.72;41.50;100162.37;1747928;80;21467;-57
2022/03/18 09:41:29;;;;;;;36.50;22.70;;;;;;;8.57;42.05;100169.09;1747945;80;21599;-57
2022/03/18 09:43:56;;;;;;;36.55;20.97;;;;;;;8.50;42.10;100175.87;1740452;80;20983;-57
2022/03/18 09:46:22;;;;;;;40.60;22.45;;;;;;;8.45;42.55;100177.84;1747054;80;21537;-57
2022/03/18 09:48:49;;;;;;;33.83;20.82;;;;;;;8.35;42.92;100168.54;1737819;80;21382;-57
2022/03/18 09:51:16;;;;;;;39.03;20.75;;;;;;;7.93;43.82;100171.52;1750440;80;21060;-57
2022/03/18 09:53:43;;;;;;;35.90;20.02;;;;;;;8.11;43.65;100175.42;1755429;80;21537;-57
2022/03/18 09:56:11;;;;;;;37.25;21.12;;;;;;;8.22;43.96;100173.45;1758458;80;21061;-56
2022/03/18 09:58:38;;;;;;;38.23;21.42;;;;;;;8.11;45.00;100176.77;1747917;80;21036;-57
2022/03/18 10:01:05;;;;;;;39.40;21.55;;;;;;;8.30;44.77;100170.52;1747186;80;21568;-57
2022/03/18 10:03:38;;;;;;;36.38;22.00;;;;;;;8.30;45.13;100171.86;1741872;80;21471;-57
2022/03/18 10:06:05;;;;;;;38.25;21.85;;;;;;;8.22;44.91;100178.02;1743861;80;21029;-57
2022/03/18 10:08:44;;;;;;;41.28;23.62;;;;;;;8.26;45.18;100180.59;1742589;80;20994;-57
2022/03/18 10:11:30;;;;;;;35.92;20.70;;;;;;;8.37;45.36;100181.30;1750937;80;26683;-58
2022/03/18 10:14:15;;;;;;;39.80;22.10;;;;;;;8.34;44.04;100183.89;1748690;80;21052;-57
2022/03/18 10:16:54;;;;;;;38.98;22.73;;;;;;;8.43;45.12;100186.69;1741333;81;21261;-57
2022/03/18 10:19:24;;;;;;;;;;;;;;;8.25;45.50;100187.87;1743000;80;21453;-57
2022/03/18 10:22:00;;;;;;;33.48;21.93;;;;;;;8.37;45.90;100192.94;1742440;81;20236;-57
2022/03/18 10:24:33;;;;;;;44.98;24.00;;;;;;;8.43;46.14;100192.62;1744121;80;21470;-57
2022/03/18 10:27:20;;;;;;;35.88;21.93;;;;;;;8.46;46.02;100193.56;1763359;80;21168;-58
2022/03/18 10:29:53;;;;;;;37.55;21.77;;;;;;;8.36;45.40;100202.61;1755180;80;21462;-58
2022/03/18 10:32:22;;;;;;;39.92;21.65;;;;;;;8.39;45.50;100199.50;1759401;80;21036;-57
2022/03/18 10:37:47;;;;;;;39.50;23.52;;;;;;;8.06;47.28;100200.90;1744761;80;20258;-57
2022/03/18 10:40:17;;;;;;;44.40;25.68;;;;;;;8.14;47.76;100204.73;1741448;80;21039;-58
2022/03/18 10:43:02;;;;;;;39.78;23.42;;;;;;;8.03;47.39;100199.45;1741079;82;21479;-58
2022/03/18 10:45:29;;;;;;;43.17;24.40;;;;;;;8.15;47.81;100195.06;1737968;80;21139;-57
2022/03/18 10:48:13;;;;;;;42.85;25.65;;;;;;;8.04;47.45;100207.03;1749859;80;21414;-56
2022/03/18 10:50:40;;;;;;;36.53;23.67;;;;;;;7.97;47.64;100205.69;1760293;80;21073;-56
2022/03/18 10:53:10;;;;;;;38.88;24.72;;;;;;;8.14;48.17;100201.50;1745710;80;21593;-57
2022/03/18 10:55:40;;;;;;;41.73;24.15;;;;;;;8.06;47.62;100203.59;1745258;80;20938;-57
2022/03/18 10:58:16;;;;;;;46.33;26.40;;;;;;;8.09;48.16;100204.00;1742560;80;20997;-57
2022/03/18 11:00:49;;;;;;;40.52;26.00;;;;;;;8.20;47.81;100203.86;1753969;80;21002;-57
2022/03/18 11:03:16;;;;;;;37.75;23.38;;;;;;;8.15;47.85;100202.33;1759920;80;20989;-57
2022/03/18 11:05:47;;;;;;;40.85;26.95;;;;;;;8.21;48.12;100200.14;1752232;80;21396;-56
2022/03/18 11:08:21;;;;;;;43.75;26.05;;;;;;;8.29;48.23;100196.36;1741604;80;21031;-57
2022/03/18 11:14:00;;;;;;;41.75;24.43;;;;;;;8.39;47.70;100202.20;1742677;80;21687;-57
2022/03/18 11:16:31;;;;;;;36.48;23.95;;;;;;;8.36;47.37;100203.44;1748005;80;20959;-57
2022/03/18 11:18:58;;;;;;;41.08;24.72;;;;;;;8.64;47.85;100196.92;1748124;80;21002;-57
2022/03/18 11:21:35;;;;;;;38.50;23.77;;;;;;;8.47;46.98;100194.70;1747230;80;21084;-57
2022/03/18 11:23:55;;;;;;;39.58;25.32;;;;;;;8.56;47.69;100198.52;1739255;80;21372;-57
2022/03/18 11:26:22;;;;;;;37.15;24.10;;;;;;;8.52;48.23;100198.09;1741196;81;21029;-56
2022/03/18 11:29:13;;;;;;;41.85;26.93;;;;;;;8.73;47.75;100196.98;1745380;80;21516;-57
2022/03/18 11:31:40;;;;;;;49.73;29.30;;;;;;;8.90;47.52;100191.92;1749009;80;21526;-57
2022/03/18 11:34:10;;;;;;;43.83;26.45;;;;;;;8.88;47.50;100196.16;1740849;80;21382;-57
2022/03/18 11:36:40;;;;;;;46.48;25.23;;;;;;;8.96;47.80;100199.14;1763007;80;21072;-57
2022/03/18 11:39:08;;;;;;;44.58;26.00;;;;;;;8.93;47.28;100200.41;1725647;80;21041;-57
2022/03/18 11:41:53;;;;;;;43.28;26.55;;;;;;;8.86;46.96;100200.97;1760371;80;21092;-56
2022/03/18 11:44:49;;;;;;;43.28;26.25;;;;;;;8.92;47.18;100203.34;1744115;80;21047;-57
2022/03/18 11:47:31;;;;;;;42.62;24.67;;;;;;;8.90;46.57;100201.38;1690858;84;21140;-56